createdAt,value
2017-10-02T17:12:00.327Z,73.90
2017-10-02T17:14:31.929Z,73.50
2017-10-02T17:17:02.353Z,73.90
2017-10-02T17:19:33.808Z,73.50
2017-10-02T17:22:04.649Z,73.50
2017-10-02T17:24:35.408Z,74.00
2017-10-02T17:27:06.687Z,74.00
2017-10-02T17:29:37.794Z,73.80
2017-10-02T17:32:08.440Z,74.00
2017-10-02T17:34:39.016Z,74.00
2017-10-02T17:37:09.444Z,74.10
2017-10-02T17:39:40.001Z,74.20
2017-10-02T17:42:10.579Z,74.30
2017-10-02T17:44:41.965Z,74.50
2017-10-02T17:47:12.566Z,75.00
2017-10-02T17:49:43.351Z,74.80
2017-10-02T17:52:14.203Z,74.40
2017-10-02T17:54:45.541Z,74.70
2017-10-02T17:57:16.378Z,74.70
2017-10-02T17:59:48.591Z,74.70
2017-10-02T18:02:18.953Z,74.70
2017-10-02T18:04:50.012Z,75.00
2017-10-02T18:07:20.550Z,75.00
2017-10-02T18:09:52.805Z,75.60
2017-10-02T18:12:24.678Z,75.40
2017-10-02T18:14:56.060Z,75.20
2017-10-02T18:17:27.955Z,75.30
2017-10-02T18:19:59.195Z,75.30
2017-10-02T18:22:30.194Z,75.20
2017-10-02T18:25:01.220Z,75.50
2017-10-02T18:27:31.991Z,75.00
2017-10-02T18:30:02.640Z,75.40
2017-10-02T18:32:33.764Z,76.10
2017-10-02T18:35:04.614Z,76.80
2017-10-02T18:37:36.026Z,76.80
2017-10-02T18:40:06.866Z,76.90
2017-10-02T18:42:38.392Z,77.00
2017-10-02T18:45:10.557Z,76.90
2017-10-02T18:47:42.562Z,77.60
2017-10-02T18:50:13.418Z,77.50
2017-10-02T18:52:44.557Z,77.70
2017-10-02T18:55:15.709Z,77.90
2017-10-02T18:57:47.240Z,78.10
2017-10-02T19:00:18.316Z,77.80
2017-10-02T19:02:49.130Z,78.20
2017-10-02T19:05:21.639Z,78.80
2017-10-02T19:07:53.299Z,79.10
2017-10-02T19:10:24.361Z,79.20
2017-10-02T19:12:55.939Z,78.90
2017-10-02T19:15:26.957Z,78.90
2017-10-02T19:17:58.286Z,79.00
2017-10-02T19:20:30.091Z,79.80
2017-10-02T19:23:03.135Z,79.70
2017-10-02T19:25:34.239Z,79.70
2017-10-02T19:28:06.272Z,80.30
2017-10-02T19:30:37.339Z,80.60
2017-10-02T19:33:08.322Z,80.80
2017-10-02T19:35:39.298Z,81.10
2017-10-02T19:38:10.354Z,80.90
2017-10-02T19:40:41.848Z,81.00
2017-10-02T19:43:13.886Z,80.70
2017-10-02T19:45:45.628Z,80.70
2017-10-02T19:48:16.353Z,81.00
2017-10-02T19:50:47.868Z,81.10
2017-10-02T19:53:20.814Z,81.00
2017-10-02T19:55:53.351Z,81.20
2017-10-02T19:58:24.278Z,81.00
2017-10-02T20:00:55.082Z,81.50
2017-10-02T20:03:26.458Z,81.90
2017-10-02T20:05:57.293Z,81.80
2017-10-02T20:08:29.079Z,82.50
2017-10-02T20:11:00.127Z,82.80
2017-10-02T20:13:35.803Z,82.70
2017-10-02T20:16:07.287Z,82.70
2017-10-02T20:18:39.218Z,83.20
2017-10-02T20:21:11.307Z,83.10
2017-10-02T20:23:43.484Z,83.70
2017-10-02T20:26:15.539Z,83.70
2017-10-02T20:28:46.944Z,83.90
2017-10-02T20:31:17.941Z,84.10
2017-10-02T20:33:49.705Z,84.80
2017-10-02T20:36:21.817Z,84.80
2017-10-02T20:38:52.821Z,84.90
2017-10-02T20:41:24.402Z,84.80
2017-10-02T20:43:55.496Z,85.00
2017-10-02T20:46:26.359Z,86.10
2017-10-02T20:48:57.103Z,85.30
2017-10-02T20:51:27.600Z,85.70
2017-10-02T20:53:58.314Z,86.00
2017-10-02T20:56:28.725Z,85.80
2017-10-02T20:58:59.290Z,85.90
2017-10-02T21:01:29.869Z,86.00
2017-10-02T21:04:00.425Z,86.00
2017-10-02T21:06:32.392Z,86.20
2017-10-02T21:09:04.258Z,86.50
2017-10-02T21:11:35.201Z,86.60
2017-10-02T21:14:06.539Z,87.10
2017-10-02T21:16:37.488Z,87.10
2017-10-02T21:19:09.257Z,87.30
2017-10-02T21:21:39.808Z,87.30
2017-10-02T21:24:10.738Z,87.40
2017-10-02T21:26:41.375Z,87.90
2017-10-02T21:29:12.129Z,87.80
2017-10-02T21:31:43.840Z,88.10
2017-10-02T21:34:14.525Z,88.50
2017-10-02T21:36:45.163Z,88.80
2017-10-02T21:39:16.485Z,88.90
2017-10-02T21:41:47.031Z,88.80
2017-10-02T21:44:18.226Z,88.90
2017-10-02T21:46:49.405Z,89.20
2017-10-02T21:49:20.539Z,89.40
2017-10-02T21:51:51.178Z,89.70
2017-10-02T21:54:23.098Z,89.80
2017-10-02T21:56:54.271Z,90.10
2017-10-02T21:59:24.833Z,90.10
2017-10-02T22:01:55.433Z,90.10
2017-10-02T22:04:27.969Z,90.40
2017-10-02T22:06:58.719Z,90.10
2017-10-02T22:09:29.914Z,90.10
2017-10-02T22:12:00.859Z,90.10
2017-10-02T22:14:31.803Z,90.30
2017-10-02T22:17:02.885Z,90.20
2017-10-02T22:19:35.482Z,90.20
2017-10-02T22:22:07.052Z,90.20
2017-10-02T22:24:38.206Z,90.60
2017-10-02T22:27:10.005Z,90.50
2017-10-02T22:29:41.582Z,90.50
2017-10-02T22:32:14.038Z,90.20
2017-10-02T22:34:45.388Z,90.30
2017-10-02T22:37:16.503Z,90.30
2017-10-02T22:39:47.002Z,90.50
2017-10-02T22:42:17.859Z,90.60
2017-10-02T22:44:50.277Z,91.00
2017-10-02T22:47:20.858Z,90.90
2017-10-02T22:49:51.993Z,90.90
2017-10-02T22:52:22.426Z,90.90
2017-10-02T22:54:53.646Z,90.90
2017-10-02T22:57:25.441Z,90.90
2017-10-02T22:59:56.879Z,91.20
2017-10-02T23:02:29.574Z,91.10
2017-10-02T23:05:00.938Z,91.00
2017-10-02T23:07:32.185Z,91.00
2017-10-02T23:10:03.361Z,91.20
2017-10-02T23:12:34.195Z,91.10
2017-10-02T23:15:04.627Z,91.20
2017-10-02T23:17:35.459Z,91.20
2017-10-02T23:20:06.217Z,91.30
2017-10-02T23:22:38.054Z,91.20
2017-10-02T23:25:08.423Z,91.60
2017-10-02T23:27:39.409Z,91.40
2017-10-02T23:30:10.359Z,91.40
2017-10-02T23:32:41.408Z,91.40
2017-10-02T23:35:11.773Z,91.50
2017-10-02T23:37:42.720Z,91.40
2017-10-02T23:40:14.228Z,91.50
2017-10-02T23:42:44.638Z,91.50
2017-10-02T23:45:16.291Z,91.50
2017-10-02T23:47:47.683Z,90.20
2017-10-02T23:50:18.865Z,90.40
2017-10-02T23:52:49.517Z,90.70
2017-10-02T23:55:19.882Z,91.70
2017-10-02T23:57:52.164Z,92.50
